sim
Sign-in with your pilot id or email,
or register
Callsign
Passwort

Schedule Details

Flight Number: OEO6019
Departure: La Palma Airport (GCLA) at 16:20
Arrival: Munich Airport (EDDM) at 21:05

Weather Information
Getting current METAR information for GCLA 220030Z AUTO 34006KT CAVOK 23/20 Q1018
Getting current METAR information for EDDM 220020Z VRB01KT 7000 3000NE R08L/0450N BCFG NSC 10/09 Q1015 NOSIG

Schedule Frequency

Route Map